createdAt,value
2022-12-01T00:00:59.169Z,97.67
2022-12-01T00:01:59.370Z,97.67
2022-12-01T00:02:59.514Z,97.56
2022-12-01T00:03:59.584Z,97.46
2022-12-01T00:04:59.744Z,97.46
2022-12-01T00:05:59.862Z,97.46
2022-12-01T00:07:00.001Z,97.41
2022-12-01T00:08:00.243Z,97.52
2022-12-01T00:09:00.276Z,97.31
2022-12-01T00:10:00.425Z,97.10
2022-12-01T00:11:00.561Z,97.20
2022-12-01T00:12:00.689Z,97.31
2022-12-01T00:13:00.829Z,97.35
2022-12-01T00:14:00.956Z,97.56
2022-12-01T00:15:01.211Z,97.67
2022-12-01T00:16:01.271Z,97.77
2022-12-01T00:17:01.418Z,97.88
2022-12-01T00:18:01.545Z,97.88
2022-12-01T00:19:01.678Z,97.77
2022-12-01T00:20:01.820Z,97.88
2022-12-01T00:21:01.980Z,97.72
2022-12-01T00:22:02.103Z,97.46
2022-12-01T00:23:02.252Z,97.46
2022-12-01T00:24:02.386Z,97.35
2022-12-01T00:25:02.595Z,97.46
2022-12-01T00:26:02.731Z,97.62
2022-12-01T00:27:02.867Z,97.52
2022-12-01T00:28:02.980Z,97.20
2022-12-01T00:29:03.104Z,97.20
2022-12-01T00:30:04.205Z,97.10
2022-12-01T00:31:03.445Z,97.10
2022-12-01T00:32:03.673Z,97.10
2022-12-01T00:33:03.705Z,97.20
2022-12-01T00:34:06.898Z,96.89
2022-12-01T00:35:05.043Z,96.79
2022-12-01T00:36:04.166Z,96.79
2022-12-01T00:37:04.292Z,96.89
2022-12-01T00:38:04.411Z,97.14
2022-12-01T00:39:04.546Z,97.25
2022-12-01T00:40:04.671Z,97.35
2022-12-01T00:41:04.801Z,97.46
2022-12-01T00:42:10.051Z,97.46
2022-12-01T00:43:06.121Z,97.46
2022-12-01T00:44:05.235Z,97.56
2022-12-01T00:45:05.359Z,97.67
2022-12-01T00:46:05.588Z,97.67
2022-12-01T00:47:05.622Z,97.46
2022-12-01T00:48:05.753Z,97.46
2022-12-01T00:49:05.897Z,97.35
2022-12-01T00:50:06.041Z,97.35
2022-12-01T00:51:06.187Z,97.35
2022-12-01T00:52:06.312Z,97.25
2022-12-01T00:53:06.449Z,97.46
2022-12-01T00:54:06.565Z,97.56
2022-12-01T00:55:06.708Z,97.77
2022-12-01T00:56:06.846Z,97.92
2022-12-01T00:57:06.984Z,98.02
2022-12-01T00:58:07.115Z,98.02
2022-12-01T00:59:07.251Z,98.23
2022-12-01T01:00:07.386Z,98.13
2022-12-01T01:01:07.673Z,98.13
2022-12-01T01:02:07.774Z,98.23
2022-12-01T01:03:07.815Z,98.13
2022-12-01T01:04:07.954Z,98.02
2022-12-01T01:05:08.115Z,98.02
2022-12-01T01:06:08.276Z,97.81
2022-12-01T01:07:08.424Z,97.92
2022-12-01T01:08:08.651Z,97.92
2022-12-01T01:09:08.672Z,97.92
2022-12-01T01:10:08.805Z,97.92
2022-12-01T01:11:08.960Z,97.92
2022-12-01T01:12:09.101Z,97.61
2022-12-01T01:13:09.230Z,97.71
2022-12-01T01:14:09.375Z,97.71
2022-12-01T01:15:09.516Z,97.40
2022-12-01T01:16:09.695Z,97.50
2022-12-01T01:17:09.897Z,97.40
2022-12-01T01:18:09.943Z,97.40
2022-12-01T01:19:10.085Z,97.50
2022-12-01T01:20:10.220Z,97.50
2022-12-01T01:21:10.389Z,97.40
2022-12-01T01:22:10.515Z,97.30
2022-12-01T01:23:10.648Z,97.19
2022-12-01T01:24:10.787Z,97.19
2022-12-01T01:25:10.932Z,97.19
2022-12-01T01:26:11.077Z,97.14
2022-12-01T01:27:11.218Z,96.83
2022-12-01T01:28:11.351Z,96.77
2022-12-01T01:29:11.494Z,96.98
2022-12-01T01:30:11.636Z,97.04
2022-12-01T01:31:11.857Z,96.88
2022-12-01T01:32:11.920Z,96.98
2022-12-01T01:33:12.062Z,96.94
2022-12-01T01:34:12.188Z,96.77
2022-12-01T01:35:12.322Z,96.77
2022-12-01T01:36:12.472Z,96.77
2022-12-01T01:37:12.625Z,96.88
2022-12-01T01:38:12.755Z,96.88
2022-12-01T01:39:12.890Z,96.98
2022-12-01T01:40:13.014Z,96.88
2022-12-01T01:41:13.162Z,96.98
2022-12-01T01:42:13.290Z,96.98
2022-12-01T01:43:13.427Z,97.09
2022-12-01T01:44:13.554Z,97.09
2022-12-01T01:45:13.679Z,97.09
2022-12-01T01:46:13.880Z,97.19
2022-12-01T01:47:14.028Z,97.30
2022-12-01T01:48:14.173Z,97.40
2022-12-01T01:49:14.306Z,97.19
2022-12-01T01:50:14.452Z,96.98
2022-12-01T01:51:14.588Z,96.88
2022-12-01T01:52:14.734Z,96.88
2022-12-01T01:53:14.860Z,96.98
2022-12-01T01:54:15.007Z,97.09
2022-12-01T01:55:15.140Z,97.09
2022-12-01T01:56:15.308Z,97.04
2022-12-01T01:57:15.442Z,96.94
2022-12-01T01:58:15.570Z,96.83
2022-12-01T01:59:15.696Z,96.73
2022-12-01T02:00:15.845Z,96.73
2022-12-01T02:01:16.059Z,96.52
2022-12-01T02:02:16.160Z,96.73
2022-12-01T02:03:16.271Z,96.77
2022-12-01T02:04:16.412Z,96.88
2022-12-01T02:05:16.543Z,96.98
2022-12-01T02:06:16.684Z,97.09
2022-12-01T02:07:16.802Z,97.09
2022-12-01T02:08:16.928Z,97.14
2022-12-01T02:09:17.052Z,97.04
2022-12-01T02:10:17.186Z,96.94
2022-12-01T02:11:17.340Z,96.83
2022-12-01T02:12:17.459Z,96.52
2022-12-01T02:13:17.580Z,96.56
2022-12-01T02:14:17.820Z,96.77
2022-12-01T02:15:17.946Z,97.09
2022-12-01T02:16:18.169Z,97.30
2022-12-01T02:17:18.287Z,97.50
2022-12-01T02:18:18.428Z,97.40
2022-12-01T02:19:18.563Z,97.40
2022-12-01T02:20:18.695Z,97.61
2022-12-01T02:21:18.849Z,97.65
2022-12-01T02:22:18.987Z,97.86
2022-12-01T02:23:19.116Z,97.92
2022-12-01T02:24:19.254Z,97.92
2022-12-01T02:25:19.380Z,97.71
2022-12-01T02:26:19.525Z,97.50
2022-12-01T02:27:19.655Z,97.61
2022-12-01T02:28:19.814Z,97.50
2022-12-01T02:29:19.936Z,97.65
2022-12-01T02:30:20.081Z,97.71
2022-12-01T02:31:20.269Z,97.61
2022-12-01T02:32:20.385Z,97.55
2022-12-01T02:33:20.519Z,97.65
2022-12-01T02:34:20.665Z,97.81
2022-12-01T02:35:20.812Z,97.71
2022-12-01T02:36:20.974Z,97.61
2022-12-01T02:37:21.108Z,97.61
2022-12-01T02:38:21.238Z,97.71
2022-12-01T02:39:21.376Z,97.61
2022-12-01T02:40:21.511Z,97.71
2022-12-01T02:41:21.654Z,97.61
2022-12-01T02:42:21.799Z,97.71
2022-12-01T02:43:21.957Z,97.40
2022-12-01T02:44:22.104Z,97.50
2022-12-01T02:45:22.232Z,97.61
2022-12-01T02:46:22.441Z,97.50
2022-12-01T02:47:22.480Z,97.65
2022-12-01T02:48:22.628Z,97.65
2022-12-01T02:49:22.764Z,97.75
2022-12-01T02:50:22.914Z,97.97
2022-12-01T02:51:23.074Z,97.97
2022-12-01T02:52:23.325Z,97.97
2022-12-01T02:53:23.387Z,98.07
2022-12-01T02:54:23.553Z,98.28
2022-12-01T02:55:23.693Z,98.49
2022-12-01T02:56:23.863Z,98.49
2022-12-01T02:57:23.997Z,98.49
2022-12-01T02:58:24.179Z,98.38
2022-12-01T02:59:24.310Z,98.43
2022-12-01T03:00:24.454Z,98.63
2022-12-01T03:01:24.679Z,98.80
2022-12-01T03:02:24.819Z,98.80
2022-12-01T03:03:24.959Z,98.69
2022-12-01T03:04:25.194Z,98.38
2022-12-01T03:05:25.348Z,98.28
2022-12-01T03:06:25.518Z,98.18
2022-12-01T03:07:25.687Z,98.28
2022-12-01T03:08:25.855Z,98.38
2022-12-01T03:09:26.018Z,98.38
2022-12-01T03:10:26.173Z,98.18
2022-12-01T03:11:26.389Z,98.07
2022-12-01T03:12:26.574Z,97.86
2022-12-01T03:13:26.754Z,97.97
2022-12-01T03:14:26.917Z,97.86
2022-12-01T03:15:27.058Z,97.97
2022-12-01T03:16:27.327Z,98.07
2022-12-01T03:17:27.354Z,98.07
2022-12-01T03:18:27.508Z,97.86
2022-12-01T03:19:27.647Z,97.65
2022-12-01T03:20:27.790Z,97.75
2022-12-01T03:21:27.946Z,97.86
2022-12-01T03:22:28.098Z,97.97
2022-12-01T03:23:28.254Z,97.65
2022-12-01T03:24:28.386Z,97.55
2022-12-01T03:25:28.522Z,97.55
2022-12-01T03:26:28.686Z,97.75
2022-12-01T03:27:28.819Z,97.75
2022-12-01T03:28:28.968Z,97.65
2022-12-01T03:29:29.110Z,97.65
2022-12-01T03:30:29.245Z,97.65
2022-12-01T03:31:29.438Z,97.70
2022-12-01T03:32:29.568Z,97.75
2022-12-01T03:33:29.703Z,97.55
2022-12-01T03:34:29.853Z,97.59
2022-12-01T03:35:30.001Z,97.80
2022-12-01T03:36:30.197Z,97.59
2022-12-01T03:37:30.328Z,97.49
2022-12-01T03:38:30.482Z,97.70
2022-12-01T03:39:30.629Z,98.01
2022-12-01T03:40:30.793Z,98.22
2022-12-01T03:41:30.944Z,98.11
2022-12-01T03:42:31.089Z,97.70
2022-12-01T03:43:31.228Z,97.91
2022-12-01T03:44:39.174Z,98.01
2022-12-01T03:45:31.603Z,97.91
2022-12-01T03:46:31.822Z,97.91
2022-12-01T03:47:31.971Z,97.70
2022-12-01T03:48:32.120Z,97.70
2022-12-01T03:49:32.259Z,97.70
2022-12-01T03:50:32.421Z,97.80
2022-12-01T03:51:32.579Z,97.85
2022-12-01T03:52:32.731Z,97.95
2022-12-01T03:53:32.863Z,98.16
2022-12-01T03:54:33.020Z,98.26
2022-12-01T03:55:33.154Z,98.26
2022-12-01T03:56:33.321Z,98.68
2022-12-01T03:57:33.459Z,98.47
2022-12-01T03:58:33.611Z,98.37
2022-12-01T03:59:33.751Z,98.53
2022-12-01T04:00:33.918Z,98.47
2022-12-01T04:01:34.121Z,98.47
2022-12-01T04:02:34.337Z,98.47
2022-12-01T04:03:34.461Z,98.43
2022-12-01T04:04:34.616Z,98.37
2022-12-01T04:05:34.762Z,98.58
2022-12-01T04:06:34.933Z,98.58
2022-12-01T04:07:35.130Z,98.53
2022-12-01T04:08:35.268Z,98.53
2022-12-01T04:09:35.429Z,98.63
2022-12-01T04:10:35.563Z,98.53
2022-12-01T04:11:35.738Z,98.53
2022-12-01T04:12:35.896Z,98.43
2022-12-01T04:13:36.023Z,98.22
2022-12-01T04:14:36.171Z,98.32
2022-12-01T04:15:36.300Z,98.43
2022-12-01T04:16:36.579Z,98.43
2022-12-01T04:17:36.651Z,98.47
2022-12-01T04:18:36.791Z,98.63
2022-12-01T04:19:36.930Z,98.85
2022-12-01T04:20:37.085Z,98.74
2022-12-01T04:21:37.251Z,98.63
2022-12-01T04:22:37.422Z,98.63
2022-12-01T04:23:37.546Z,98.43
2022-12-01T04:24:37.706Z,98.53
2022-12-01T04:25:37.846Z,98.68
2022-12-01T04:26:38.008Z,98.63
2022-12-01T04:27:38.158Z,98.74
2022-12-01T04:28:38.309Z,98.53
2022-12-01T04:29:38.454Z,98.32
2022-12-01T04:30:38.587Z,98.58
2022-12-01T04:31:38.819Z,98.63
2022-12-01T04:32:38.878Z,98.53
2022-12-01T04:33:39.035Z,98.43
2022-12-01T04:34:39.184Z,98.43
2022-12-01T04:35:39.325Z,98.53
2022-12-01T04:36:39.495Z,98.53
2022-12-01T04:37:39.641Z,98.22
2022-12-01T04:38:39.788Z,98.11
2022-12-01T04:39:39.927Z,98.11
2022-12-01T04:40:40.074Z,98.32
2022-12-01T04:41:40.230Z,98.32
2022-12-01T04:42:40.380Z,98.32
2022-12-01T04:43:40.516Z,98.43
2022-12-01T04:44:40.671Z,98.11
2022-12-01T04:45:40.816Z,98.01
2022-12-01T04:46:41.116Z,98.32
2022-12-01T04:47:41.172Z,98.43
2022-12-01T04:48:41.340Z,98.53
2022-12-01T04:49:41.492Z,98.53
2022-12-01T04:50:41.647Z,98.43
2022-12-01T04:51:41.809Z,98.32
2022-12-01T04:52:41.970Z,98.32
2022-12-01T04:53:42.107Z,98.43
2022-12-01T04:54:42.275Z,98.63
2022-12-01T04:55:42.418Z,98.63
2022-12-01T04:56:42.576Z,98.43
2022-12-01T04:57:42.725Z,98.53
2022-12-01T04:58:42.889Z,98.43
2022-12-01T04:59:43.039Z,98.43
2022-12-01T05:00:43.273Z,98.63
2022-12-01T05:01:43.535Z,98.74
2022-12-01T05:02:43.711Z,98.63
2022-12-01T05:03:43.886Z,98.63
2022-12-01T05:04:44.085Z,98.85
2022-12-01T05:05:44.276Z,98.85
2022-12-01T05:06:44.474Z,98.63
2022-12-01T05:07:44.700Z,98.43
2022-12-01T05:08:44.841Z,98.53
2022-12-01T05:09:44.994Z,98.53
2022-12-01T05:10:45.163Z,98.63
2022-12-01T05:11:45.326Z,98.79
2022-12-01T05:12:45.472Z,98.85
2022-12-01T05:13:45.621Z,98.85
2022-12-01T05:14:45.796Z,98.74
2022-12-01T05:15:45.942Z,98.74
2022-12-01T05:16:46.135Z,98.85
2022-12-01T05:17:46.289Z,98.95
2022-12-01T05:18:46.508Z,98.85
2022-12-01T05:19:46.851Z,98.63
2022-12-01T05:20:46.819Z,98.63
2022-12-01T05:21:46.993Z,98.63
2022-12-01T05:23:05.002Z,98.74
2022-12-01T05:23:48.466Z,98.74
2022-12-01T05:24:47.397Z,98.63
2022-12-01T05:25:47.557Z,98.63
2022-12-01T05:26:47.740Z,98.53
2022-12-01T05:27:47.906Z,98.53
2022-12-01T05:28:48.065Z,98.43
2022-12-01T05:29:48.603Z,98.11
2022-12-01T05:30:48.380Z,98.11
2022-12-01T05:31:48.595Z,98.01
2022-12-01T05:32:48.746Z,98.22
2022-12-01T05:33:48.905Z,98.22
2022-12-01T05:34:49.075Z,98.32
2022-12-01T05:35:49.261Z,98.53
2022-12-01T05:36:49.430Z,98.43
2022-12-01T05:37:49.624Z,98.22
2022-12-01T05:38:49.776Z,98.22
2022-12-01T05:39:50.171Z,98.32
2022-12-01T05:40:50.122Z,98.32
2022-12-01T05:41:50.276Z,98.32
2022-12-01T05:42:50.472Z,98.32
2022-12-01T05:43:50.681Z,98.43
2022-12-01T05:44:50.883Z,98.32
2022-12-01T05:45:51.124Z,98.32
2022-12-01T05:46:51.180Z,98.32
2022-12-01T05:47:51.375Z,98.32
2022-12-01T05:48:51.549Z,98.32
2022-12-01T05:49:51.719Z,98.32
2022-12-01T05:50:51.889Z,98.43
2022-12-01T05:51:52.072Z,98.43
2022-12-01T05:52:52.262Z,98.53
2022-12-01T05:53:52.450Z,98.43
2022-12-01T05:54:52.667Z,98.32
2022-12-01T05:55:52.827Z,98.22
2022-12-01T05:56:53.008Z,98.11
2022-12-01T05:57:53.307Z,98.11
2022-12-01T05:58:53.376Z,98.01
2022-12-01T05:59:53.547Z,98.01
2022-12-01T06:00:53.708Z,98.01
2022-12-01T06:01:53.915Z,98.01
2022-12-01T06:02:54.004Z,98.01
2022-12-01T06:03:54.228Z,98.01
2022-12-01T06:04:54.377Z,97.97
2022-12-01T06:05:54.528Z,97.55
2022-12-01T06:06:54.686Z,97.44
2022-12-01T06:07:54.905Z,97.24
2022-12-01T06:08:55.035Z,97.13
2022-12-01T06:09:55.214Z,97.24
2022-12-01T06:10:55.381Z,97.13
2022-12-01T06:11:55.646Z,97.13
2022-12-01T06:12:55.707Z,97.03
2022-12-01T06:13:55.918Z,96.82
2022-12-01T06:14:56.114Z,96.82
2022-12-01T06:15:56.321Z,96.82
2022-12-01T06:16:56.565Z,96.82
2022-12-01T06:17:56.688Z,96.71
2022-12-01T06:18:56.773Z,96.76
2022-12-01T06:19:56.988Z,96.97
2022-12-01T06:20:57.177Z,97.03
2022-12-01T06:21:57.381Z,96.92
2022-12-01T06:22:57.586Z,96.76
2022-12-01T06:23:57.791Z,96.55
2022-12-01T06:24:58.168Z,96.80
2022-12-01T06:25:58.138Z,97.22
2022-12-01T06:26:58.412Z,97.43
2022-12-01T06:27:58.547Z,97.49
2022-12-01T06:28:58.668Z,97.49
2022-12-01T06:29:58.764Z,97.59
2022-12-01T06:31:03.230Z,97.49
2022-12-01T06:31:59.215Z,97.49
2022-12-01T06:32:59.334Z,97.59
2022-12-01T06:33:59.538Z,97.80
2022-12-01T06:34:59.755Z,97.70
2022-12-01T06:36:00.007Z,97.38
2022-12-01T06:37:00.152Z,97.38
2022-12-01T06:38:00.360Z,97.28
2022-12-01T06:39:00.545Z,97.17
2022-12-01T06:40:00.752Z,97.07
2022-12-01T06:41:00.923Z,97.17
2022-12-01T06:42:01.113Z,97.38
2022-12-01T06:43:01.303Z,97.38
2022-12-01T06:44:01.480Z,97.17
2022-12-01T06:45:01.744Z,97.07
2022-12-01T06:46:02.592Z,96.97
2022-12-01T06:47:02.030Z,97.07
2022-12-01T06:48:02.239Z,96.97
2022-12-01T06:49:02.415Z,97.07
2022-12-01T06:50:02.607Z,96.92
2022-12-01T06:51:02.838Z,96.82
2022-12-01T06:52:02.933Z,97.03
2022-12-01T06:53:03.134Z,96.92
2022-12-01T06:54:05.624Z,97.03
2022-12-01T06:55:03.513Z,96.61
2022-12-01T06:56:03.667Z,96.71
2022-12-01T06:57:03.779Z,96.71
2022-12-01T06:58:03.957Z,96.82
2022-12-01T06:59:04.057Z,96.66
2022-12-01T07:00:04.260Z,96.66
2022-12-01T07:01:04.427Z,96.97
2022-12-01T07:02:04.531Z,96.97
2022-12-01T07:03:04.755Z,97.13
2022-12-01T07:04:05.041Z,97.13
2022-12-01T07:05:05.124Z,96.61
2022-12-01T07:06:05.332Z,96.50
2022-12-01T07:07:05.515Z,96.61
2022-12-01T07:08:05.823Z,96.61
2022-12-01T07:09:05.923Z,96.61
2022-12-01T07:10:06.122Z,96.30
2022-12-01T07:11:06.305Z,96.09
2022-12-01T07:12:06.545Z,96.13
2022-12-01T07:13:06.731Z,96.44
2022-12-01T07:14:06.938Z,96.30
2022-12-01T07:15:07.101Z,96.03
2022-12-01T07:16:07.299Z,95.92
2022-12-01T07:17:07.562Z,95.92
2022-12-01T07:18:07.688Z,95.82
2022-12-01T07:19:07.762Z,95.82
2022-12-01T07:20:07.967Z,95.92
2022-12-01T07:21:08.146Z,95.82
2022-12-01T07:22:08.327Z,95.78
2022-12-01T07:23:08.525Z,95.50
2022-12-01T07:24:08.716Z,95.50
2022-12-01T07:25:08.882Z,95.50
2022-12-01T07:26:09.071Z,95.82
2022-12-01T07:27:09.275Z,95.50
2022-12-01T07:28:09.476Z,95.61
2022-12-01T07:29:09.645Z,95.40
2022-12-01T07:30:09.844Z,95.61
2022-12-01T07:31:10.065Z,95.61
2022-12-01T07:32:10.174Z,95.88
2022-12-01T07:33:10.364Z,95.56
2022-12-01T07:34:10.555Z,95.36
2022-12-01T07:35:10.737Z,95.25
2022-12-01T07:36:10.938Z,95.15
2022-12-01T07:37:11.115Z,95.25
2022-12-01T07:38:11.363Z,95.25
2022-12-01T07:39:11.438Z,95.15
2022-12-01T07:40:11.624Z,94.94
2022-12-01T07:41:11.834Z,94.94
2022-12-01T07:42:12.012Z,94.73
2022-12-01T07:43:12.218Z,94.42
2022-12-01T07:44:12.422Z,94.21
2022-12-01T07:45:12.608Z,94.63
2022-12-01T07:46:17.218Z,94.63
2022-12-01T07:47:13.948Z,94.84
2022-12-01T07:48:13.170Z,95.04
2022-12-01T07:49:13.381Z,94.90
2022-12-01T07:50:13.576Z,94.58
2022-12-01T07:51:13.740Z,94.48
2022-12-01T07:52:13.925Z,94.27
2022-12-01T07:53:14.122Z,94.37
2022-12-01T07:54:14.373Z,93.96
2022-12-01T07:55:14.527Z,93.85
2022-12-01T07:56:14.714Z,93.85
2022-12-01T07:57:14.952Z,93.85
2022-12-01T07:58:15.135Z,94.06
2022-12-01T07:59:15.447Z,93.96
2022-12-01T08:00:15.552Z,93.90
2022-12-01T08:01:15.838Z,94.27
2022-12-01T08:02:16.048Z,94.06
2022-12-01T08:03:16.231Z,93.79
2022-12-01T08:04:16.344Z,94.31
2022-12-01T08:05:16.589Z,94.00
2022-12-01T08:06:16.659Z,94.00
2022-12-01T08:07:16.826Z,94.17
2022-12-01T08:08:17.107Z,94.00
2022-12-01T08:09:17.205Z,94.17
2022-12-01T08:10:17.378Z,94.27
2022-12-01T08:11:17.562Z,93.85
2022-12-01T08:12:17.737Z,93.75
2022-12-01T08:13:17.920Z,93.75
2022-12-01T08:14:18.100Z,93.75
2022-12-01T08:15:18.268Z,93.54
2022-12-01T08:16:18.473Z,93.54
2022-12-01T08:17:18.636Z,93.44
2022-12-01T08:18:18.884Z,93.33
2022-12-01T08:19:18.939Z,93.44
2022-12-01T08:20:23.714Z,93.54
2022-12-01T08:21:20.260Z,93.75
2022-12-01T08:22:19.436Z,93.85
2022-12-01T08:23:19.618Z,93.54
2022-12-01T08:24:19.804Z,93.44
2022-12-01T08:25:19.973Z,93.44
2022-12-01T08:26:20.182Z,93.23
2022-12-01T08:27:20.354Z,93.44
2022-12-01T08:28:20.557Z,93.54
2022-12-01T08:29:20.736Z,93.48
2022-12-01T08:30:20.916Z,93.79
2022-12-01T08:31:21.143Z,93.79
2022-12-01T08:32:21.223Z,93.90
2022-12-01T08:33:21.422Z,93.48
2022-12-01T08:34:21.615Z,93.59
2022-12-01T08:35:21.782Z,93.79
2022-12-01T08:36:21.953Z,93.90
2022-12-01T08:37:22.122Z,94.00
2022-12-01T08:38:22.324Z,93.90
2022-12-01T08:39:22.503Z,94.06
2022-12-01T08:40:22.689Z,94.17
2022-12-01T08:41:22.871Z,94.17
2022-12-01T08:42:23.057Z,93.91
2022-12-01T08:43:49.649Z,93.71
2022-12-01T08:44:24.428Z,93.18
2022-12-01T08:45:23.508Z,92.77
2022-12-01T08:46:23.759Z,92.71
2022-12-01T08:47:23.813Z,93.18
2022-12-01T08:48:24.009Z,93.08
2022-12-01T08:49:24.188Z,93.18
2022-12-01T08:50:24.385Z,92.87
2022-12-01T08:51:24.560Z,92.77
2022-12-01T08:52:24.742Z,92.66
2022-12-01T08:53:25.059Z,92.56
2022-12-01T08:54:25.043Z,92.35
2022-12-01T08:55:25.210Z,92.77
2022-12-01T08:56:25.415Z,92.87
2022-12-01T08:57:25.701Z,92.87
2022-12-01T08:58:25.794Z,92.87
2022-12-01T08:59:25.964Z,92.66
2022-12-01T09:00:26.149Z,92.46
2022-12-01T09:01:26.425Z,92.35
2022-12-01T09:02:26.575Z,92.50
2022-12-01T09:03:26.758Z,92.71
2022-12-01T09:04:26.952Z,92.66
2022-12-01T09:05:27.121Z,92.60
2022-12-01T09:06:27.303Z,92.71
2022-12-01T09:07:27.476Z,92.91
2022-12-01T09:08:27.661Z,93.02
2022-12-01T09:09:27.842Z,93.02
2022-12-01T09:10:28.011Z,93.12
2022-12-01T09:11:28.180Z,93.12
2022-12-01T09:12:28.365Z,92.91
2022-12-01T09:13:28.548Z,92.71
2022-12-01T09:14:28.727Z,92.81
2022-12-01T09:15:28.888Z,92.71
2022-12-01T09:16:29.265Z,92.81
2022-12-01T09:17:29.227Z,92.81
2022-12-01T09:18:29.509Z,92.60
2022-12-01T09:19:29.577Z,92.81
2022-12-01T09:20:29.781Z,92.91
2022-12-01T09:21:29.947Z,93.12
2022-12-01T09:22:30.143Z,92.71
2022-12-01T09:23:30.356Z,92.29
2022-12-01T09:24:30.564Z,92.29
2022-12-01T09:25:30.790Z,92.60
2022-12-01T09:26:30.962Z,92.35
2022-12-01T09:27:31.181Z,92.18
2022-12-01T09:28:31.352Z,92.14
2022-12-01T09:29:31.528Z,92.14
2022-12-01T09:30:31.714Z,92.03
2022-12-01T09:31:31.966Z,91.72
2022-12-01T09:32:32.033Z,91.83
2022-12-01T09:33:32.217Z,91.83
2022-12-01T09:34:32.420Z,91.93
2022-12-01T09:35:32.616Z,91.83
2022-12-01T09:36:32.797Z,91.72
2022-12-01T09:37:32.971Z,91.72
2022-12-01T09:38:33.164Z,91.83
2022-12-01T09:39:33.345Z,91.62
2022-12-01T09:40:33.592Z,91.31
2022-12-01T09:41:33.680Z,91.31
2022-12-01T09:42:35.532Z,91.52
2022-12-01T09:43:34.047Z,91.83
2022-12-01T09:44:41.247Z,91.83
2022-12-01T09:45:35.073Z,91.93
2022-12-01T09:46:34.614Z,91.72
2022-12-01T09:47:35.509Z,91.41
2022-12-01T09:48:34.910Z,91.58
2022-12-01T09:49:35.077Z,91.47
2022-12-01T09:50:35.251Z,91.37
2022-12-01T09:51:35.417Z,91.06
2022-12-01T09:52:35.580Z,91.06
2022-12-01T09:53:35.764Z,91.10
2022-12-01T09:54:35.932Z,91.06
2022-12-01T09:55:36.104Z,91.16
2022-12-01T09:56:36.282Z,91.20
2022-12-01T09:57:36.447Z,91.31
2022-12-01T09:58:36.646Z,91.27
2022-12-01T09:59:36.841Z,91.16
2022-12-01T10:00:37.091Z,91.06
2022-12-01T10:01:37.359Z,90.95
2022-12-01T10:02:37.405Z,90.95
2022-12-01T10:03:37.567Z,90.95
2022-12-01T10:04:37.722Z,90.85
2022-12-01T10:05:51.317Z,90.75
2022-12-01T10:06:39.182Z,90.89
2022-12-01T10:07:38.285Z,91.10
2022-12-01T10:08:38.448Z,91.41
2022-12-01T10:09:38.606Z,91.20
2022-12-01T10:10:38.769Z,91.00
2022-12-01T10:11:38.916Z,91.20
2022-12-01T10:12:39.096Z,91.10
2022-12-01T10:13:39.485Z,91.31
2022-12-01T10:14:39.451Z,91.62
2022-12-01T10:15:39.593Z,91.52
2022-12-01T10:16:39.773Z,91.52
2022-12-01T10:17:39.933Z,91.41
2022-12-01T10:18:40.089Z,91.62
2022-12-01T10:19:40.248Z,91.58
2022-12-01T10:20:40.411Z,91.68
2022-12-01T10:21:40.569Z,91.16
2022-12-01T10:22:40.723Z,90.75
2022-12-01T10:23:40.885Z,90.54
2022-12-01T10:24:41.075Z,90.39
2022-12-01T10:25:41.253Z,89.98
2022-12-01T10:26:41.398Z,89.76
2022-12-01T10:27:41.567Z,89.76
2022-12-01T10:28:41.731Z,89.76
2022-12-01T10:29:47.206Z,89.56
2022-12-01T10:30:43.094Z,89.91
2022-12-01T10:31:42.289Z,90.22
2022-12-01T10:32:42.449Z,90.22
2022-12-01T10:33:42.599Z,90.01
2022-12-01T10:34:42.755Z,89.91
2022-12-01T10:35:42.901Z,89.91
2022-12-01T10:36:43.055Z,90.01
2022-12-01T10:37:43.283Z,90.12
2022-12-01T10:38:43.409Z,90.12
2022-12-01T10:39:43.569Z,90.12
2022-12-01T10:40:43.740Z,90.22
2022-12-01T10:41:43.913Z,90.44
2022-12-01T10:42:44.073Z,90.12
2022-12-01T10:43:44.243Z,90.22
2022-12-01T10:44:44.395Z,90.33
2022-12-01T10:45:44.645Z,90.22
2022-12-01T10:46:44.695Z,90.33
2022-12-01T10:47:44.838Z,90.33
2022-12-01T10:48:44.983Z,90.44
2022-12-01T10:49:45.153Z,90.22
2022-12-01T10:50:45.308Z,90.22
2022-12-01T10:51:45.483Z,90.33
2022-12-01T10:52:45.631Z,90.22
2022-12-01T10:53:45.781Z,90.64
2022-12-01T10:54:45.927Z,90.44
2022-12-01T10:55:48.037Z,90.54
2022-12-01T10:56:46.243Z,90.75
2022-12-01T10:57:46.409Z,90.44
2022-12-01T10:58:46.557Z,90.22
2022-12-01T10:59:46.802Z,90.12
2022-12-01T11:01:02.417Z,90.01
2022-12-01T11:01:48.007Z,90.12
2022-12-01T11:02:47.303Z,90.33
2022-12-01T11:03:47.410Z,90.22
2022-12-01T11:04:47.548Z,90.44
2022-12-01T11:05:47.717Z,90.33
2022-12-01T11:06:47.867Z,90.33
2022-12-01T11:07:48.105Z,90.12
2022-12-01T11:08:48.184Z,90.12
2022-12-01T11:09:48.692Z,90.22
2022-12-01T11:10:48.585Z,90.33
2022-12-01T11:11:48.762Z,90.19
2022-12-01T11:12:48.910Z,90.29
2022-12-01T11:13:49.073Z,90.08
2022-12-01T11:14:49.229Z,89.76
2022-12-01T11:15:49.413Z,89.66
2022-12-01T11:16:49.607Z,89.76
2022-12-01T11:17:49.770Z,89.81
2022-12-01T11:18:49.955Z,89.98
2022-12-01T11:19:50.358Z,89.76
2022-12-01T11:20:50.323Z,90.08
2022-12-01T11:21:50.474Z,89.66
2022-12-01T11:22:50.638Z,89.45
2022-12-01T11:23:50.819Z,89.14
2022-12-01T11:24:50.930Z,89.45
2022-12-01T11:25:51.102Z,89.66
2022-12-01T11:26:51.243Z,89.66
2022-12-01T11:27:51.417Z,89.35
2022-12-01T11:28:51.549Z,89.04
2022-12-01T11:29:51.997Z,89.35
2022-12-01T11:30:56.522Z,89.56
2022-12-01T11:31:52.094Z,89.25
2022-12-01T11:32:52.143Z,88.89
2022-12-01T11:33:52.324Z,88.48
2022-12-01T11:34:52.498Z,88.37
2022-12-01T11:35:52.662Z,88.48
2022-12-01T11:36:52.807Z,88.48
2022-12-01T11:38:21.179Z,88.17
2022-12-01T11:38:54.134Z,88.52
2022-12-01T11:39:53.290Z,88.73
2022-12-01T11:40:53.436Z,88.79
2022-12-01T11:41:53.590Z,88.42
2022-12-01T11:42:53.722Z,88.73
2022-12-01T11:44:01.493Z,88.62
2022-12-01T11:44:55.072Z,88.52
2022-12-01T11:45:54.324Z,88.73
2022-12-01T11:47:07.844Z,89.25
2022-12-01T11:47:55.558Z,89.25
2022-12-01T11:48:54.688Z,88.73
2022-12-01T11:49:54.840Z,88.52
2022-12-01T11:50:54.995Z,89.04
2022-12-01T11:51:55.141Z,88.73
2022-12-01T11:52:55.336Z,88.52
2022-12-01T11:53:55.512Z,88.10
2022-12-01T11:54:55.654Z,88.10
2022-12-01T11:55:56.850Z,88.20
2022-12-01T11:57:31.784Z,88.56
2022-12-01T11:57:58.118Z,88.98
2022-12-01T11:58:56.268Z,89.08
2022-12-01T11:59:56.443Z,89.08
2022-12-01T12:00:56.616Z,89.18
2022-12-01T12:01:56.820Z,89.35
2022-12-01T12:02:56.876Z,88.93
2022-12-01T12:03:57.104Z,88.83
2022-12-01T12:04:57.128Z,88.83
2022-12-01T12:06:01.362Z,88.52
2022-12-01T12:06:58.362Z,88.52
2022-12-01T12:07:57.587Z,88.52
2022-12-01T12:08:57.667Z,88.73
2022-12-01T12:09:57.839Z,88.62
2022-12-01T12:10:57.973Z,88.62
2022-12-01T12:11:58.122Z,88.73
2022-12-01T12:12:58.255Z,88.83
2022-12-01T12:13:58.424Z,88.73
2022-12-01T12:14:58.586Z,88.52
2022-12-01T12:15:58.797Z,88.52
2022-12-01T12:16:58.979Z,88.52
2022-12-01T12:17:59.174Z,88.48
2022-12-01T12:18:59.286Z,87.99
2022-12-01T12:20:07.753Z,88.20
2022-12-01T12:21:00.667Z,88.10
2022-12-01T12:22:00.338Z,88.10
2022-12-01T12:22:59.925Z,88.10
2022-12-01T12:24:00.090Z,88.42
2022-12-01T12:25:00.255Z,88.83
2022-12-01T12:26:00.416Z,88.83
2022-12-01T12:27:00.552Z,88.83
2022-12-01T12:28:00.699Z,88.20
2022-12-01T12:29:00.833Z,88.31
2022-12-01T12:30:00.969Z,88.52
2022-12-01T12:31:01.195Z,88.52
2022-12-01T12:32:01.254Z,88.73
2022-12-01T12:33:01.393Z,88.83
2022-12-01T12:34:01.567Z,88.42
2022-12-01T12:35:01.719Z,88.62
2022-12-01T12:36:01.873Z,88.76
2022-12-01T12:37:02.053Z,88.87
2022-12-01T12:38:02.212Z,89.18
2022-12-01T12:39:02.406Z,89.14
2022-12-01T12:40:02.562Z,88.93
2022-12-01T12:41:02.705Z,88.93
2022-12-01T12:42:02.863Z,89.14
2022-12-01T12:43:03.021Z,88.89
2022-12-01T12:44:03.169Z,88.42
2022-12-01T12:45:03.304Z,88.31
2022-12-01T12:46:04.515Z,88.73
2022-12-01T12:47:03.582Z,88.62
2022-12-01T12:48:04.257Z,88.42
2022-12-01T12:49:19.360Z,88.20
2022-12-01T12:50:05.153Z,88.42
2022-12-01T12:51:04.280Z,88.52
2022-12-01T12:52:08.301Z,88.48
2022-12-01T12:53:04.597Z,88.06
2022-12-01T12:54:04.785Z,88.06
2022-12-01T12:55:04.820Z,88.06